Faro Airport Faro PT
ICAO: LPFR
IATA: FAO
Category: Large
Scheduled Services: Yes

Elevation: 24 ft
TransAlt. 4000 ft.

Airport Communications:
APP:119.4
ATIS:124.2
GND:118.575
TWR:118.2

LPFR Zoom In..

Runways:

(A) RW 10 length 8169 ft width 148 ft
---- / hdg 104

(B) RW 28 length 8169 ft width 148 ft
ILS 109.50 / hdg 284

Location; LPFR
Day. 21 / Time. 23.30 Zulu
* QNH: 1008
* Temperature: 14° c. 57.2°f.
* Wind from: 030° Speed 08 kn.
Dewpoint: 00° c.
Visibility: 10 km or more,
No clouds below 1,500 m.
No cumulonimbus, and no significant weather
fenomena in the aerodrome or its vicinity.

LPFR 212330Z 03008KT 360V070 CAVOK 14/00 Q1008


Wind From 030°
Speed 08 kn.

YouTube Music Video
 
jpsmedia.com for Web Design  worldairports.se 2018   terms of use